Latest Weather Observations for Mount Buller

IDV60801

Issued at 7:42 am EST Sunday 19 September 2021 (issued every 10 minutes, with the page automatically refreshed every 10 minutes)

About weather observations | Map of weather stations | Latest weather observations for VIC | Other Formats
Station Details ID: 083024 Name: MOUNT BULLER Lat: -37.15 Lon: 146.44 Height: 1707.0 m
Data from the previous 72 hours. | See also: Recent months at Mount Buller
Date/Time
EST
Temp
°C
App
Temp
°C
Dew
Point
°C
Rel
Hum
%
Delta-T
°C
Wind Press
QNH
hPa
Press
MSL
hPa
Rain since
9am
mm
Dir  Spd
km/h
Gust
km/h
Spd
kts
Gust
kts
19/07:30am -1.7 -9.3 -1.8 99 0.0 NNW 28 57 15 31 - - 0.0
19/07:00am -1.6 -9.9 -1.7 99 0.0 NNW 32 54 17 29 - - 0.0
19/06:36am -1.7 -9.3 -1.8 99 0.0 N 28 50 15 27 - - 0.0
19/06:30am -1.7 -8.9 -1.8 99 0.0 N 26 43 14 23 - - 0.0
19/06:00am -1.7 -8.1 -1.8 99 0.0 NNW 22 48 12 26 - - 0.0
19/05:43am -1.8 -9.4 -1.9 99 -0.1 NNW 28 50 15 27 - - 0.0
19/05:30am -1.8 -8.6 -1.9 99 -0.1 N 24 52 13 28 - - 0.0
19/05:00am -2.0 -9.6 -2.1 99 -0.1 N 28 46 15 25 - - 0.0
19/04:40am -2.1 -9.7 -2.2 99 -0.1 NNW 28 52 15 28 - - 0.0
19/04:30am -2.2 -9.1 -2.3 99 -0.1 NNW 24 43 13 23 - - 0.0
19/04:00am -2.3 -8.4 -2.4 99 -0.1 NNW 20 35 11 19 - - 0.0
19/03:30am -2.4 -10.0 -2.5 99 -0.1 NW 28 44 15 24 - - 0.0
19/03:08am -2.5 -10.2 -2.6 99 -0.1 NW 28 56 15 30 - - 0.0
19/03:00am -2.4 -9.3 -2.5 99 -0.1 NNW 24 41 13 22 - - 0.0
19/02:30am -2.2 -9.8 -2.3 99 -0.1 NNW 28 46 15 25 - - 0.0
19/02:25am -2.2 -9.8 -2.3 99 -0.1 NNW 28 46 15 25 - - 0.0
19/02:00am -2.1 -8.6 -2.2 99 -0.1 NNW 22 43 12 23 - - 0.0
19/01:30am -1.7 -9.6 -1.8 99 0.0 NNW 30 50 16 27 - - 0.0
19/01:00am -1.4 -8.9 -1.5 99 0.0 NNW 28 48 15 26 - - 0.0
19/12:30am -1.5 -9.8 -1.6 99 0.0 NW 32 57 17 31 - - 0.0
19/12:20am -1.5 -9.0 -1.6 99 0.0 NW 28 50 15 27 - - 0.0
19/12:00am -1.6 -8.8 -1.7 99 0.0 NW 26 50 14 27 - - 0.0
 
Date/Time
EST
Temp
°C
App
Temp
°C
Dew
Point
°C
Rel
Hum
%
Delta-T
°C
Wind Press
QNH
hPa
Press
MSL
hPa
Rain since
9am
mm
Dir  Spd
km/h
Gust
km/h
Spd
kts
Gust
kts
18/11:30pm -1.6 -7.6 -1.7 99 0.0 NNW 20 37 11 20 - - 0.0
18/11:00pm -1.5 -8.3 -1.6 99 0.0 NW 24 52 13 28 - - 0.0
18/10:30pm -1.6 -6.7 -1.7 99 0.0 NNW 15 41 8 22 - - 0.0
18/10:00pm -1.5 -7.3 -1.6 99 0.0 NW 19 35 10 19 - - 0.0
18/09:32pm -1.2 -9.1 -1.3 99 0.0 WNW 30 48 16 26 - - 0.0
18/09:30pm -1.3 -9.6 -1.4 99 0.0 WNW 32 48 17 26 - - 0.0
18/09:00pm -1.2 -10.4 -1.3 99 0.0 WNW 37 57 20 31 - - 0.0
18/08:31pm -1.2 -10.1 -1.6 97 0.1 WNW 35 54 19 29 - - 0.0
18/08:30pm -1.2 -10.1 -1.6 97 0.1 WNW 35 50 19 27 - - 0.0
18/08:00pm -1.1 -8.6 -1.2 99 0.0 WNW 28 48 15 26 - - 0.0
18/07:30pm -0.8 -8.2 -0.9 99 0.0 WNW 28 54 15 29 - - 0.0
18/07:02pm -0.7 -8.1 -0.8 99 0.0 WNW 28 48 15 26 - - 0.0
18/07:00pm -0.7 -7.7 -0.8 99 0.0 WNW 26 48 14 26 - - 0.0
18/06:47pm -0.7 -6.6 -0.8 99 0.0 WNW 20 65 11 35 - - 0.0
18/06:30pm -0.4 -4.5 -0.5 99 0.0 WNW 11 30 6 16 - - 0.0
18/06:00pm -0.3 -4.4 -0.4 99 0.0 NW 11 41 6 22 - - 0.0
18/05:30pm 0.0 -4.6 -0.7 95 0.3 NW 13 33 7 18 - - 0.0
18/05:00pm 0.2 -6.4 -0.5 95 0.3 WNW 24 54 13 29 - - 0.0
18/04:30pm 0.3 -4.2 -0.3 96 0.2 NNW 13 44 7 24 - - 0.0
18/04:00pm 0.3 -5.6 -0.5 94 0.3 N 20 41 11 22 - - 0.0
18/03:33pm 0.8 -4.9 -0.5 91 0.5 NNW 19 46 10 25 - - 0.0
18/03:30pm 0.9 -3.6 -0.5 90 0.6 NW 13 33 7 18 - - 0.0
18/03:00pm 0.4 -4.8 0.3 99 0.0 NNW 17 35 9 19 - - 0.0
18/02:30pm 0.7 -4.4 0.6 99 0.0 NW 17 35 9 19 - - 0.0
18/02:00pm -0.2 -4.7 -0.3 99 0.0 NW 13 33 7 18 - - 0.0
18/01:30pm 0.0 -4.5 -0.1 99 0.0 NW 13 41 7 22 - - 0.0
18/01:00pm 0.6 -4.5 0.5 99 0.0 N 17 39 9 21 - - 0.0
18/12:30pm 0.1 -4.7 0.0 99 0.0 NW 15 30 8 16 - - 0.0
18/12:00pm 0.6 -5.1 0.5 99 0.0 NNW 20 37 11 20 - - 0.0
18/11:30am -0.6 -7.2 -0.7 99 0.0 N 24 50 13 27 - - 0.0
18/11:16am -0.5 -7.9 -0.6 99 0.0 N 28 50 15 27 - - 0.0
18/11:00am -0.4 -7.0 -0.5 99 0.0 NNW 24 39 13 21 - - 0.0
18/10:30am 0.7 -4.8 0.6 99 0.0 NNW 19 37 10 20 - - 0.0
18/10:00am 0.7 -5.0 0.6 99 0.0 NNW 20 43 11 23 - - 0.0
18/09:30am -0.1 -5.9 -0.2 99 0.0 NNW 20 39 11 21 - - 0.0
18/09:00am -0.3 -6.1 -0.4 99 0.0 N 20 39 11 21 - - 0.0
18/08:30am 0.3 -6.2 0.2 99 0.0 NNW 24 46 13 25 - - 0.0
18/08:00am 0.4 -5.3 0.3 99 0.0 NNW 20 39 11 21 - - 0.0
18/07:30am 1.1 -4.5 1.0 99 0.0 NNW 20 37 11 20 - - 0.0
18/07:00am 1.5 -4.8 1.5 100 0.0 NNW 24 56 13 30 - - 0.0
18/06:30am 1.5 -4.4 1.4 99 0.0 NNW 22 46 12 25 - - 0.0
18/06:00am 1.6 -3.0 1.5 99 0.0 NNW 15 41 8 22 - - 0.0
18/05:30am 1.8 -3.7 1.7 99 0.0 WNW 20 48 11 26 - - 0.0
18/05:00am 2.6 -3.9 2.6 100 0.0 NNW 26 48 14 26 - - 0.0
18/04:30am 3.1 -6.2 3.1 100 0.0 NNW 41 67 22 36 - - 0.0
18/04:00am 3.5 -5.3 3.5 100 0.0 N 39 65 21 35 - - 0.0
18/03:32am 3.7 -2.6 3.7 100 0.0 NNW 26 57 14 31 - - 0.0
18/03:30am 3.7 -1.9 3.7 100 0.0 NNW 22 57 12 31 - - 0.0
18/03:01am 4.1 -2.5 4.1 100 0.0 NNW 28 59 15 32 - - 0.0
18/03:00am 4.4 -1.8 4.4 100 0.0 NNW 26 59 14 32 - - 0.0
18/02:57am 4.3 -1.1 4.3 100 0.0 NNW 22 59 12 32 - - 0.0
18/02:47am 5.0 -2.8 5.0 100 0.0 NNW 35 72 19 39 - - 0.0
18/02:30am 5.1 -4.7 5.1 100 0.0 NNW 46 78 25 42 - - 0.0
18/02:00am 5.2 -5.4 5.2 100 0.0 NNW 50 83 27 45 - - 0.0
18/01:30am 5.2 -6.5 5.2 100 0.0 NNW 56 87 30 47 - - 0.0
18/01:00am 5.2 -7.5 5.2 100 0.0 NNW 61 95 33 51 - - 0.0
18/12:30am 5.2 -8.2 5.2 100 0.0 NNW 65 96 35 52 - - 0.0
18/12:06am 5.4 -9.7 5.4 100 0.0 NNW 74 120 40 65 - - 0.0
18/12:00am 5.2 -9.6 5.2 100 0.0 NNW 72 96 39 52 - - 0.0
 
Date/Time
EST
Temp
°C
App
Temp
°C
Dew
Point
°C
Rel
Hum
%
Delta-T
°C
Wind Press
QNH
hPa
Press
MSL
hPa
Rain since
9am
mm
Dir  Spd
km/h
Gust
km/h
Spd
kts
Gust
kts
17/11:30pm 5.1 -9.1 5.1 100 0.0 N 69 93 37 50 - - 0.0
17/11:00pm 5.3 -8.5 5.3 100 0.0 N 67 96 36 52 - - 0.0
17/10:30pm 5.4 -7.2 5.4 100 0.0 NNW 61 89 33 48 - - 0.0
17/10:21pm 5.5 -6.7 5.5 100 0.0 NNW 59 87 32 47 - - 0.0
17/10:07pm 5.2 -5.0 5.1 99 0.0 NNW 48 93 26 50 - - 0.0
17/10:00pm 4.8 -5.5 4.7 99 0.0 N 48 72 26 39 - - 0.0
17/09:30pm 4.5 -7.9 4.4 99 0.0 N 59 95 32 51 - - 0.0
17/09:00pm 4.4 -7.7 4.3 99 0.0 N 57 87 31 47 - - 0.0
17/08:30pm 4.3 -9.3 4.2 99 0.0 N 65 87 35 47 - - 0.0
17/08:12pm 4.2 -9.8 4.1 99 0.0 N 67 100 36 54 - - 0.0
17/08:00pm 4.0 -8.5 3.9 99 0.0 N 59 82 32 44 - - 0.0
17/07:30pm 3.9 -9.0 3.8 99 0.0 N 61 85 33 46 - - 0.0
17/07:00pm 4.0 -8.5 3.9 99 0.0 N 59 89 32 48 - - 0.0
17/06:51pm 4.1 -7.5 4.0 99 0.0 N 54 89 29 48 - - 0.0
17/06:30pm 3.7 -6.5 3.4 98 0.1 N 46 65 25 35 - - 0.0
17/06:00pm 4.2 -6.9 2.7 90 0.7 NNW 50 74 27 40 - - 0.0
17/05:30pm 4.0 -5.7 2.7 91 0.6 NNW 43 69 23 37 - - 0.0
17/05:13pm 4.0 -5.7 2.7 91 0.6 N 43 63 23 34 - - 0.0
17/05:00pm 4.1 -5.8 2.5 89 0.7 N 44 61 24 33 - - 0.0
17/04:30pm 4.1 -5.0 2.0 86 0.9 N 39 59 21 32 - - 0.0
17/04:20pm 3.8 -4.9 2.2 89 0.7 N 37 56 20 30 - - 0.0
17/04:00pm 3.6 -4.3 2.3 91 0.6 NNE 33 48 18 26 - - 0.0
17/03:31pm 3.8 -4.5 2.3 90 0.7 N 35 54 19 29 - - 0.0
17/03:30pm 3.7 -4.2 2.4 91 0.6 N 33 50 18 27 - - 0.0
17/03:23pm 3.8 -4.1 2.3 90 0.7 N 33 52 18 28 - - 0.0
17/03:00pm 3.5 -5.5 2.2 91 0.6 N 39 52 21 28 - - 0.0
17/02:57pm 3.5 -5.9 2.2 91 0.6 N 41 59 22 32 - - 0.0
17/02:30pm 3.8 -6.0 2.3 90 0.7 N 43 56 23 30 - - 0.0
17/02:18pm 4.6 -5.4 2.3 85 1.0 N 44 65 24 35 - - 0.0
17/02:00pm 4.3 -5.5 2.3 87 0.9 N 43 56 23 30 - - 0.0
17/01:30pm 5.4 -4.7 1.5 76 1.7 N 44 69 24 37 - - 0.0
17/01:12pm 6.1 -3.2 0.6 68 2.4 N 39 57 21 31 - - 0.0
17/01:00pm 7.3 -0.9 2.8 73 2.1 N 35 46 19 25 - - 0.0
17/12:30pm 6.6 -1.6 2.9 77 1.7 NNE 35 44 19 24 - - 0.0
17/12:02pm 5.2 -4.1 0.8 73 1.9 NNE 39 63 21 34 - - 0.0
17/12:00pm 4.9 -3.9 1.6 79 1.5 NNE 37 46 20 25 - - 0.0
17/11:30am 3.7 -4.7 1.3 84 1.0 NNE 35 44 19 24 - - 0.0
17/11:17am 4.0 -3.5 0.9 80 1.3 NNE 30 50 16 27 - - 0.0
17/11:00am 6.0 -1.5 1.3 72 2.1 N 30 39 16 21 - - 0.0
17/10:30am 6.3 -0.6 0.4 66 2.6 N 26 35 14 19 - - 0.0
17/10:00am 6.0 -2.0 0.3 67 2.5 NNW 32 41 17 22 - - 0.0
17/09:30am 4.9 -2.4 0.1 71 2.1 N 28 35 15 19 - - 0.0
17/09:00am 3.7 -3.4 1.3 84 1.0 N 28 33 15 18 - - 0.0
17/08:30am 3.6 -2.3 2.0 89 0.7 N 22 28 12 15 - - 0.0
17/08:00am 1.7 -3.9 1.4 98 0.1 N 20 26 11 14 - - 0.0
17/07:30am 0.6 -4.2 0.5 99 0.0 N 15 19 8 10 - - 0.0
17/07:00am 0.2 -5.0 0.1 99 0.0 NNE 17 20 9 11 - - 0.0
17/06:30am 0.0 -4.8 -0.1 99 0.0 N 15 17 8 9 - - 0.0
17/06:00am 0.0 -5.8 -4.4 72 1.6 NNW 17 19 9 10 - - 0.0
17/05:30am 0.2 -5.2 -4.1 73 1.6 NNW 15 19 8 10 - - 0.0
17/05:00am -0.3 -6.1 -0.4 99 0.0 N 20 26 11 14 - - 0.0
17/04:30am 0.0 -6.6 -0.1 99 0.0 N 24 33 13 18 - - 0.0
17/04:00am 0.0 -8.1 -0.1 99 0.0 NNW 32 43 17 23 - - 0.0
17/03:30am 0.4 -8.6 0.3 99 0.0 N 37 46 20 25 - - 0.0
17/03:00am 0.2 -7.8 0.1 99 0.0 N 32 43 17 23 - - 0.0
17/02:30am 0.3 -7.9 0.2 99 0.0 NNW 33 44 18 24 - - 0.0
17/02:00am 0.3 -7.9 0.2 99 0.0 N 33 46 18 25 - - 0.0
17/01:30am 0.3 -7.9 0.2 99 0.0 N 33 46 18 25 - - 0.0
17/01:00am 0.2 -8.1 -0.4 96 0.3 N 33 44 18 24 - - 0.0
17/12:30am 0.1 -7.6 -0.2 98 0.1 N 30 39 16 21 - - 0.0
17/12:00am 0.1 -7.3 -0.5 96 0.2 N 28 39 15 21 - - 0.0
 
Date/Time
EST
Temp
°C
App
Temp
°C
Dew
Point
°C
Rel
Hum
%
Delta-T
°C
Wind Press
QNH
hPa
Press
MSL
hPa
Rain since
9am
mm
Dir  Spd
km/h
Gust
km/h
Spd
kts
Gust
kts
16/11:30pm 0.3 -6.7 -0.7 93 0.4 N 26 35 14 19 - - 0.0
16/11:00pm 0.7 -6.3 -0.3 93 0.4 N 26 35 14 19 - - 0.0
16/10:30pm 0.8 -5.8 -0.2 93 0.4 N 24 35 13 19 - - 0.0
16/10:00pm 0.4 -5.8 -0.2 96 0.2 N 22 28 12 15 - - 0.0
16/09:30pm 0.5 -5.6 0.4 99 0.0 N 22 30 12 16 - - 0.0
16/09:00pm 0.5 -5.0 0.4 99 0.0 N 19 22 10 12 - - 0.0
16/08:30pm 0.7 -4.8 0.6 99 0.0 N 19 22 10 12 - - 0.0
16/08:00pm 0.5 -4.7 0.4 99 0.0 NNE 17 20 9 11 - - 0.0
16/07:30pm 0.2 -4.2 0.1 99 0.0 N 13 17 7 9 - - 0.0
16/07:00pm 0.3 -3.7 0.2 99 0.0 NNE 11 13 6 7 - - 0.0
16/06:30pm 0.8 -2.8 0.4 97 0.2 NNE 9 11 5 6 - - 0.0
16/06:00pm 1.0 -3.1 0.0 93 0.4 NNE 11 13 6 7 - - 0.0
16/05:30pm 1.6 -2.8 0.1 90 0.6 NNE 13 15 7 8 - - 0.0
16/05:00pm 2.7 -0.9 0.9 88 0.8 NE 9 15 5 8 - - 0.0
16/04:30pm 2.8 -0.7 1.0 88 0.8 NNW 9 13 5 7 - - 0.0
16/04:00pm 3.4 -0.7 0.1 79 1.4 NNE 11 17 6 9 - - 0.0
16/03:30pm 2.8 -0.9 -0.1 81 1.2 NNE 9 15 5 8 - - 0.0
16/03:00pm 3.3 -0.7 0.5 82 1.2 NE 11 20 6 11 - - 0.0
16/02:30pm 3.5 -0.1 0.7 82 1.2 N 9 15 5 8 - - 0.0
16/02:00pm 3.1 -0.6 0.0 80 1.3 NE 9 17 5 9 - - 0.0
16/01:30pm 3.6 -1.2 0.5 80 1.3 NNE 15 24 8 13 - - 0.0
16/01:00pm 3.2 -0.5 -0.1 79 1.4 NNE 9 20 5 11 - - 0.0
16/12:30pm 2.9 -1.0 1.3 89 0.7 NE 11 19 6 10 - - 0.0
16/12:00pm 3.2 -0.7 1.3 87 0.8 NNE 11 19 6 10 - - 0.0
16/11:30am 2.6 -1.4 0.5 86 0.9 N 11 17 6 9 - - 0.0
16/11:00am 2.2 -2.2 0.4 88 0.8 N 13 19 7 10 - - 0.0
16/10:30am 2.3 -2.4 0.7 89 0.7 N 15 20 8 11 - - 0.0
16/10:00am 2.4 -1.8 1.4 93 0.4 N 13 20 7 11 - - 0.0
16/09:30am 1.2 -3.6 0.2 93 0.4 N 15 19 8 10 - - 0.0
16/09:00am 1.0 -3.4 0.4 96 0.2 NNE 13 22 7 12 - - 0.0
16/08:30am 1.0 -3.0 0.7 98 0.1 N 11 17 6 9 - - 0.0
16/08:00am 1.5 -3.1 1.4 99 0.0 N 15 19 8 10 - - 0.0

Other formats

Comma delimited format used in spreadsheet applications
http://www.bom.gov.au/fwo/IDV60801/IDV60801.94894.axf

JavaScript Object Notation format (JSON) in row-major order
http://www.bom.gov.au/fwo/IDV60801/IDV60801.94894.json

Data quality

Most of these data are generated automatically and are frequently updated. Quality checks on data are not normally performed. It is possible for incorrect values to appear. Refer to information at About Latest Weather Observations and please check the disclaimer before using these data.